Nogales, AZ

9:29 PM MST on October 19, 2014 (GMT -0700)
Nogales International | Change Station
CLOSE
Current Station
Airport
Location: Nogales,
Elevation: 3944 ft
Nearby Weather Stations

Elev 3944 ft 31.42 °N, 110.85 °W | Updated 1 hour ago

Clear
Clear
60 °F
Feels Like 60 °F
N
6
Wind Variable Wind from East

Today
High -- | Low -- °F
--% Chance of Precip.
Yesterday
High -- | Low -- °F
Precip. -- in
6:29 AM 5:46 PM
Waning Crescent, 13% visible
Pressure 29.86 in
Visibility 10.0 miles
Clouds Scattered Clouds 7500 ft
Dew Point 49 °F
Humidity 67%
Rainfall 0.01 in
Snow Depth Not available.
UV 0 out of 12
Pollen 5.30 out of 12
Air Quality Not available.
Flu Activity No Activity
METAR KOLS 200254Z AUTO 08005KT 10SM SCT075 16/09 A2998 RMK AO2 SLP109 T01560094 51023

More Conditions Fewer Conditions

Pressure 29.86 in
Visibility 10.0 miles
Clouds Scattered Clouds 7500 ft
Dew Point 49 °F
Humidity 67%
Rainfall 0.01 in
Snow Depth Not available.
UV 0 out of 12
Pollen 5.30 out of 12
Air Quality Not available.
Flu Activity No Activity
METAR KOLS 200254Z AUTO 08005KT 10SM SCT075 16/09 A2998 RMK AO2 SLP109 T01560094 51023

More Conditions Fewer Conditions

10-Day Weather Forecast

Almanac

Astronomy

Oct. 19, 2014 Rise Set
Actual Time 6:29 AM MST 5:46 PM MST
Civil Twilight 6:04 AM MST 6:11 PM MST
Nautical Twilight 5:36 AM MST 6:39 PM MST
Astronomical Twilight 5:08 AM MST 7:07 PM MST
Moon 2:40 AM MST (10/19) 3:27 PM MST (10/19)
Length of Visible Light 12h 06m
Length of Day
11h 17m
Waning Crescent, 13% of the Moon is Illuminated
Oct 20
Waning Crescent
Oct 23
New
Oct 30
First Quarter
Nov 6
Full
Nov 14
Last Quarter

Yesterday's Extremes

State Highs State Lows

Community

WunderPhotos

Upload Photos

1,763,294 photos uploaded!

Nearby

Snow Depth

Station Depth Elevation
Workman Creek 0 in 6900 ft
Hannagan Meadows 1 in 9020 ft
Wildcat 0 in 7850 ft
Beaver Head 1 in 7990 ft
Maverick Fork 0 in 9200 ft

Earthquake Activity

City Distance Mag. Time & Date
No recent earthquake activity has been reported nearby.
Minimum magnitude displayed is 2.5.

Coastal Water Temperatures

Place Temperature
No Stations Reporting

Nearby Weather Stations